sensor_id;sensor_type;location;lat;lon;timestamp;pressure;altitude;pressure_sealevel;temperature;humidity
31331;BME280;34067;39.548;-76.088;2023-06-19T00:00:06;101081.55;;;29.61;28.04
31331;BME280;34067;39.548;-76.088;2023-06-19T00:02:34;101069.93;;;29.90;27.83
31331;BME280;34067;39.548;-76.088;2023-06-19T00:05:01;101072.17;;;29.29;27.93
31331;BME280;34067;39.548;-76.088;2023-06-19T00:07:29;101074.90;;;29.96;27.90
31331;BME280;34067;39.548;-76.088;2023-06-19T00:09:57;101077.23;;;29.69;27.95
31331;BME280;34067;39.548;-76.088;2023-06-19T00:12:25;101081.63;;;29.02;28.25
31331;BME280;34067;39.548;-76.088;2023-06-19T00:14:53;101088.22;;;27.77;29.34
31331;BME280;34067;39.548;-76.088;2023-06-19T00:17:21;101086.82;;;27.99;29.28
31331;BME280;34067;39.548;-76.088;2023-06-19T00:19:49;101087.70;;;28.82;28.80
31331;BME280;34067;39.548;-76.088;2023-06-19T00:22:17;101086.70;;;28.22;29.19
31331;BME280;34067;39.548;-76.088;2023-06-19T00:24:45;101090.56;;;28.37;29.49
31331;BME280;34067;39.548;-76.088;2023-06-19T00:27:13;101091.59;;;27.69;29.71
31331;BME280;34067;39.548;-76.088;2023-06-19T00:29:41;101097.10;;;27.54;30.24
31331;BME280;34067;39.548;-76.088;2023-06-19T00:32:09;101101.51;;;28.23;30.08
31331;BME280;34067;39.548;-76.088;2023-06-19T00:34:37;101098.79;;;28.05;29.73
31331;BME280;34067;39.548;-76.088;2023-06-19T00:37:05;101099.34;;;28.26;29.83
31331;BME280;34067;39.548;-76.088;2023-06-19T00:39:33;101102.23;;;27.69;29.99
31331;BME280;34067;39.548;-76.088;2023-06-19T00:42:01;101101.26;;;28.10;30.21
31331;BME280;34067;39.548;-76.088;2023-06-19T00:44:29;101097.47;;;27.41;30.28
31331;BME280;34067;39.548;-76.088;2023-06-19T00:46:58;101096.11;;;27.37;30.27
31331;BME280;34067;39.548;-76.088;2023-06-19T00:49:29;101098.37;;;27.62;30.49
31331;BME280;34067;39.548;-76.088;2023-06-19T00:51:58;101099.31;;;27.86;30.69
31331;BME280;34067;39.548;-76.088;2023-06-19T00:54:26;101103.59;;;28.04;30.65
31331;BME280;34067;39.548;-76.088;2023-06-19T00:56:54;101109.94;;;28.02;30.86
31331;BME280;34067;39.548;-76.088;2023-06-19T00:59:22;101111.11;;;28.42;31.50
31331;BME280;34067;39.548;-76.088;2023-06-19T01:01:49;101110.93;;;27.45;31.68
31331;BME280;34067;39.548;-76.088;2023-06-19T01:04:18;101113.18;;;27.16;32.67
31331;BME280;34067;39.548;-76.088;2023-06-19T01:06:53;101115.34;;;27.54;31.81
31331;BME280;34067;39.548;-76.088;2023-06-19T01:09:21;101124.13;;;28.11;32.18
31331;BME280;34067;39.548;-76.088;2023-06-19T01:11:54;101126.15;;;27.28;32.24
31331;BME280;34067;39.548;-76.088;2023-06-19T01:14:28;101125.67;;;27.54;32.05
31331;BME280;34067;39.548;-76.088;2023-06-19T01:16:58;101125.46;;;27.27;33.50
31331;BME280;34067;39.548;-76.088;2023-06-19T01:19:27;101127.86;;;27.14;33.93
31331;BME280;34067;39.548;-76.088;2023-06-19T01:21:55;101130.46;;;27.02;33.03
31331;BME280;34067;39.548;-76.088;2023-06-19T01:24:23;101135.31;;;27.36;32.27
31331;BME280;34067;39.548;-76.088;2023-06-19T01:26:51;101138.87;;;27.71;32.34
31331;BME280;34067;39.548;-76.088;2023-06-19T01:29:19;101142.47;;;27.19;33.15
31331;BME280;34067;39.548;-76.088;2023-06-19T01:31:52;101147.25;;;27.43;34.10
31331;BME280;34067;39.548;-76.088;2023-06-19T01:34:23;101153.77;;;27.55;36.83
31331;BME280;34067;39.548;-76.088;2023-06-19T01:36:54;101163.42;;;27.25;39.09
31331;BME280;34067;39.548;-76.088;2023-06-19T01:39:23;101171.92;;;26.79;40.51
31331;BME280;34067;39.548;-76.088;2023-06-19T01:41:52;101173.23;;;27.05;40.36
31331;BME280;34067;39.548;-76.088;2023-06-19T01:44:20;101177.89;;;26.70;41.17
31331;BME280;34067;39.548;-76.088;2023-06-19T01:46:49;101179.64;;;26.72;41.30
31331;BME280;34067;39.548;-76.088;2023-06-19T01:49:17;101188.35;;;26.68;41.58
31331;BME280;34067;39.548;-76.088;2023-06-19T01:51:45;101187.39;;;26.60;41.38
31331;BME280;34067;39.548;-76.088;2023-06-19T01:54:12;101185.02;;;26.70;40.96
31331;BME280;34067;39.548;-76.088;2023-06-19T01:56:41;101185.27;;;26.55;41.02
31331;BME280;34067;39.548;-76.088;2023-06-19T01:59:08;101190.10;;;26.40;41.18
31331;BME280;34067;39.548;-76.088;2023-06-19T02:01:37;101192.15;;;26.72;40.60
31331;BME280;34067;39.548;-76.088;2023-06-19T02:04:04;101201.57;;;26.07;42.02
31331;BME280;34067;39.548;-76.088;2023-06-19T02:06:32;101209.04;;;25.88;39.86
31331;BME280;34067;39.548;-76.088;2023-06-19T02:09:00;101209.18;;;25.25;41.16
31331;BME280;34067;39.548;-76.088;2023-06-19T02:11:28;101211.58;;;26.36;40.76
31331;BME280;34067;39.548;-76.088;2023-06-19T02:13:55;101214.65;;;25.38;41.46
31331;BME280;34067;39.548;-76.088;2023-06-19T02:16:23;101217.67;;;25.86;40.46
31331;BME280;34067;39.548;-76.088;2023-06-19T02:18:51;101215.58;;;25.62;40.67
31331;BME280;34067;39.548;-76.088;2023-06-19T02:21:19;101210.74;;;25.43;41.81
31331;BME280;34067;39.548;-76.088;2023-06-19T02:23:47;101209.83;;;24.09;45.19
31331;BME280;34067;39.548;-76.088;2023-06-19T02:26:15;101212.40;;;24.53;46.52
31331;BME280;34067;39.548;-76.088;2023-06-19T02:28:42;101215.04;;;24.84;47.22
31331;BME280;34067;39.548;-76.088;2023-06-19T02:31:10;101216.24;;;24.70;48.04
31331;BME280;34067;39.548;-76.088;2023-06-19T02:33:38;101215.17;;;24.90;47.41
31331;BME280;34067;39.548;-76.088;2023-06-19T02:36:06;101219.48;;;25.53;47.13
31331;BME280;34067;39.548;-76.088;2023-06-19T02:38:34;101222.72;;;25.01;47.21
31331;BME280;34067;39.548;-76.088;2023-06-19T02:41:01;101229.18;;;24.67;47.36
31331;BME280;34067;39.548;-76.088;2023-06-19T02:43:30;101228.73;;;25.51;46.88
31331;BME280;34067;39.548;-76.088;2023-06-19T02:45:57;101222.78;;;24.98;47.48
31331;BME280;34067;39.548;-76.088;2023-06-19T02:48:25;101221.34;;;24.85;49.09
31331;BME280;34067;39.548;-76.088;2023-06-19T02:50:53;101231.32;;;23.57;52.44
31331;BME280;34067;39.548;-76.088;2023-06-19T02:53:21;101231.33;;;24.77;50.89
31331;BME280;34067;39.548;-76.088;2023-06-19T02:55:49;101229.75;;;25.24;49.79
31331;BME280;34067;39.548;-76.088;2023-06-19T02:58:17;101233.86;;;24.68;50.30
31331;BME280;34067;39.548;-76.088;2023-06-19T03:00:45;101234.63;;;24.64;51.50
31331;BME280;34067;39.548;-76.088;2023-06-19T03:03:13;101240.72;;;24.50;51.58
31331;BME280;34067;39.548;-76.088;2023-06-19T03:05:41;101248.93;;;24.18;52.75
31331;BME280;34067;39.548;-76.088;2023-06-19T03:08:09;101249.58;;;24.24;52.39
31331;BME280;34067;39.548;-76.088;2023-06-19T03:10:37;101251.37;;;24.25;52.68
31331;BME280;34067;39.548;-76.088;2023-06-19T03:13:05;101251.21;;;24.34;51.52
31331;BME280;34067;39.548;-76.088;2023-06-19T03:15:32;101251.84;;;24.44;50.14
31331;BME280;34067;39.548;-76.088;2023-06-19T03:18:00;101253.76;;;24.82;48.88
31331;BME280;34067;39.548;-76.088;2023-06-19T03:20:28;101252.37;;;24.82;49.48
31331;BME280;34067;39.548;-76.088;2023-06-19T03:22:56;101253.86;;;24.69;48.95
31331;BME280;34067;39.548;-76.088;2023-06-19T03:25:24;101258.80;;;24.55;47.98
31331;BME280;34067;39.548;-76.088;2023-06-19T03:27:51;101259.76;;;24.52;47.75
31331;BME280;34067;39.548;-76.088;2023-06-19T03:30:19;101264.97;;;24.56;48.34
31331;BME280;34067;39.548;-76.088;2023-06-19T03:32:47;101272.22;;;24.40;49.32
31331;BME280;34067;39.548;-76.088;2023-06-19T03:35:15;101272.17;;;23.44;51.81
31331;BME280;34067;39.548;-76.088;2023-06-19T03:37:43;101274.24;;;23.63;53.78
31331;BME280;34067;39.548;-76.088;2023-06-19T03:40:11;101274.15;;;23.86;53.57
31331;BME280;34067;39.548;-76.088;2023-06-19T03:42:39;101274.69;;;23.24;56.26
31331;BME280;34067;39.548;-76.088;2023-06-19T03:45:07;101273.72;;;23.07;59.96
31331;BME280;34067;39.548;-76.088;2023-06-19T03:47:36;101277.59;;;22.42;63.46
31331;BME280;34067;39.548;-76.088;2023-06-19T03:50:04;101275.28;;;22.96;63.35
31331;BME280;34067;39.548;-76.088;2023-06-19T03:52:32;101277.15;;;22.56;65.49
31331;BME280;34067;39.548;-76.088;2023-06-19T03:55:00;101278.88;;;22.97;64.02
31331;BME280;34067;39.548;-76.088;2023-06-19T03:57:28;101281.31;;;23.09;63.92
31331;BME280;34067;39.548;-76.088;2023-06-19T03:59:56;101287.63;;;22.59;63.74
31331;BME280;34067;39.548;-76.088;2023-06-19T04:02:24;101287.76;;;23.87;62.99
31331;BME280;34067;39.548;-76.088;2023-06-19T04:04:52;101293.85;;;23.26;62.99
31331;BME280;34067;39.548;-76.088;2023-06-19T04:07:20;101300.93;;;23.19;61.40
31331;BME280;34067;39.548;-76.088;2023-06-19T04:09:48;101304.10;;;23.85;60.66
31331;BME280;34067;39.548;-76.088;2023-06-19T04:12:16;101308.85;;;24.09;58.92
31331;BME280;34067;39.548;-76.088;2023-06-19T04:14:43;101308.81;;;23.69;58.57
31331;BME280;34067;39.548;-76.088;2023-06-19T04:17:13;101307.42;;;23.82;57.50
31331;BME280;34067;39.548;-76.088;2023-06-19T04:19:41;101306.20;;;23.92;56.63
31331;BME280;34067;39.548;-76.088;2023-06-19T04:22:09;101307.06;;;23.60;58.70
31331;BME280;34067;39.548;-76.088;2023-06-19T04:24:37;101308.66;;;23.02;60.22
31331;BME280;34067;39.548;-76.088;2023-06-19T04:27:05;101304.00;;;23.07;60.72
31331;BME280;34067;39.548;-76.088;2023-06-19T04:29:34;101300.52;;;22.84;62.06
31331;BME280;34067;39.548;-76.088;2023-06-19T04:32:02;101296.28;;;22.97;61.67
31331;BME280;34067;39.548;-76.088;2023-06-19T04:34:31;101295.02;;;23.04;59.79
31331;BME280;34067;39.548;-76.088;2023-06-19T04:36:59;101301.73;;;22.67;60.34
31331;BME280;34067;39.548;-76.088;2023-06-19T04:39:27;101307.55;;;23.21;60.31
31331;BME280;34067;39.548;-76.088;2023-06-19T04:41:55;101305.52;;;23.22;60.28
31331;BME280;34067;39.548;-76.088;2023-06-19T04:44:23;101309.03;;;22.72;61.32
31331;BME280;34067;39.548;-76.088;2023-06-19T04:46:51;101308.16;;;22.60;60.78
31331;BME280;34067;39.548;-76.088;2023-06-19T04:49:18;101308.26;;;22.98;59.34
31331;BME280;34067;39.548;-76.088;2023-06-19T04:51:46;101310.20;;;22.89;61.02
31331;BME280;34067;39.548;-76.088;2023-06-19T04:54:14;101313.79;;;22.81;61.61
31331;BME280;34067;39.548;-76.088;2023-06-19T04:56:41;101318.57;;;22.54;60.45
31331;BME280;34067;39.548;-76.088;2023-06-19T04:59:09;101318.09;;;22.03;63.22
31331;BME280;34067;39.548;-76.088;2023-06-19T05:03:11;101316.03;;;21.87;62.48
31331;BME280;34067;39.548;-76.088;2023-06-19T05:05:40;101314.21;;;22.44;62.01
31331;BME280;34067;39.548;-76.088;2023-06-19T05:08:07;101316.19;;;22.44;61.98
31331;BME280;34067;39.548;-76.088;2023-06-19T05:10:35;101315.92;;;22.29;62.09
31331;BME280;34067;39.548;-76.088;2023-06-19T05:13:03;101317.30;;;22.17;63.93
31331;BME280;34067;39.548;-76.088;2023-06-19T05:15:31;101315.74;;;22.76;62.91
31331;BME280;34067;39.548;-76.088;2023-06-19T05:18:00;101313.13;;;22.72;61.91
31331;BME280;34067;39.548;-76.088;2023-06-19T05:20:28;101308.88;;;22.10;63.70
31331;BME280;34067;39.548;-76.088;2023-06-19T05:22:56;101309.17;;;22.08;65.38
31331;BME280;34067;39.548;-76.088;2023-06-19T05:25:24;101313.10;;;22.69;64.80
31331;BME280;34067;39.548;-76.088;2023-06-19T05:27:52;101319.32;;;21.45;66.17
31331;BME280;34067;39.548;-76.088;2023-06-19T05:30:19;101326.67;;;21.14;65.65
31331;BME280;34067;39.548;-76.088;2023-06-19T05:32:47;101323.54;;;22.01;64.19
31331;BME280;34067;39.548;-76.088;2023-06-19T05:35:15;101321.98;;;22.03;62.89
31331;BME280;34067;39.548;-76.088;2023-06-19T05:37:44;101317.36;;;22.02;63.50
31331;BME280;34067;39.548;-76.088;2023-06-19T05:40:13;101318.14;;;22.41;61.95
31331;BME280;34067;39.548;-76.088;2023-06-19T05:42:41;101318.38;;;21.26;64.23
31331;BME280;34067;39.548;-76.088;2023-06-19T05:45:09;101316.62;;;22.23;62.54
31331;BME280;34067;39.548;-76.088;2023-06-19T05:47:36;101318.22;;;21.87;62.00
31331;BME280;34067;39.548;-76.088;2023-06-19T05:50:04;101319.13;;;22.05;62.18
31331;BME280;34067;39.548;-76.088;2023-06-19T05:52:32;101319.06;;;22.42;63.40
31331;BME280;34067;39.548;-76.088;2023-06-19T05:55:00;101324.32;;;21.48;63.55
31331;BME280;34067;39.548;-76.088;2023-06-19T05:57:28;101328.64;;;22.28;65.11
31331;BME280;34067;39.548;-76.088;2023-06-19T05:59:56;101327.68;;;21.41;67.32
31331;BME280;34067;39.548;-76.088;2023-06-19T06:02:24;101322.80;;;22.15;66.04
31331;BME280;34067;39.548;-76.088;2023-06-19T06:04:51;101324.75;;;21.30;67.81
31331;BME280;34067;39.548;-76.088;2023-06-19T06:07:19;101324.16;;;21.92;67.69
31331;BME280;34067;39.548;-76.088;2023-06-19T06:09:47;101324.91;;;22.00;68.50
31331;BME280;34067;39.548;-76.088;2023-06-19T06:12:14;101324.07;;;21.81;67.45
31331;BME280;34067;39.548;-76.088;2023-06-19T06:14:42;101325.16;;;21.91;69.54
31331;BME280;34067;39.548;-76.088;2023-06-19T06:17:10;101332.80;;;21.29;71.00
31331;BME280;34067;39.548;-76.088;2023-06-19T06:19:38;101327.93;;;20.69;73.86
31331;BME280;34067;39.548;-76.088;2023-06-19T06:22:06;101330.12;;;21.39;73.43
31331;BME280;34067;39.548;-76.088;2023-06-19T06:24:33;101327.23;;;21.27;70.68
31331;BME280;34067;39.548;-76.088;2023-06-19T06:27:01;101329.23;;;21.39;70.14
31331;BME280;34067;39.548;-76.088;2023-06-19T06:29:29;101331.05;;;22.14;68.85
31331;BME280;34067;39.548;-76.088;2023-06-19T06:32:04;101331.49;;;21.31;69.66
31331;BME280;34067;39.548;-76.088;2023-06-19T06:34:32;101329.02;;;21.56;69.59
31331;BME280;34067;39.548;-76.088;2023-06-19T06:36:59;101328.94;;;22.13;70.60
31331;BME280;34067;39.548;-76.088;2023-06-19T06:39:29;101326.87;;;21.48;70.76
31331;BME280;34067;39.548;-76.088;2023-06-19T06:41:57;101330.86;;;21.31;72.03
31331;BME280;34067;39.548;-76.088;2023-06-19T06:44:25;101328.98;;;21.45;72.03
31331;BME280;34067;39.548;-76.088;2023-06-19T06:46:53;101327.35;;;21.93;71.91
31331;BME280;34067;39.548;-76.088;2023-06-19T06:49:21;101326.87;;;21.19;73.69
31331;BME280;34067;39.548;-76.088;2023-06-19T06:51:49;101329.83;;;21.39;71.05
31331;BME280;34067;39.548;-76.088;2023-06-19T06:54:17;101331.55;;;21.56;71.95
31331;BME280;34067;39.548;-76.088;2023-06-19T06:56:44;101329.06;;;21.08;72.57
31331;BME280;34067;39.548;-76.088;2023-06-19T06:59:12;101329.00;;;21.44;71.33
31331;BME280;34067;39.548;-76.088;2023-06-19T07:01:40;101332.25;;;21.36;73.76
31331;BME280;34067;39.548;-76.088;2023-06-19T07:04:08;101335.03;;;21.60;73.14
31331;BME280;34067;39.548;-76.088;2023-06-19T07:06:36;101332.03;;;21.79;72.29
31331;BME280;34067;39.548;-76.088;2023-06-19T07:09:04;101327.92;;;21.11;72.11
31331;BME280;34067;39.548;-76.088;2023-06-19T07:11:32;101321.08;;;21.45;73.30
31331;BME280;34067;39.548;-76.088;2023-06-19T07:14:01;101325.24;;;20.70;77.27
31331;BME280;34067;39.548;-76.088;2023-06-19T07:16:29;101327.71;;;20.36;78.29
31331;BME280;34067;39.548;-76.088;2023-06-19T07:18:57;101328.79;;;20.82;79.48
31331;BME280;34067;39.548;-76.088;2023-06-19T07:21:25;101324.12;;;20.41;78.91
31331;BME280;34067;39.548;-76.088;2023-06-19T07:23:55;101322.40;;;20.73;78.05
31331;BME280;34067;39.548;-76.088;2023-06-19T07:26:23;101326.26;;;20.96;79.07
31331;BME280;34067;39.548;-76.088;2023-06-19T07:28:50;101323.20;;;20.98;77.33
31331;BME280;34067;39.548;-76.088;2023-06-19T07:31:18;101326.66;;;20.58;80.44
31331;BME280;34067;39.548;-76.088;2023-06-19T07:33:45;101326.90;;;20.99;79.12
31331;BME280;34067;39.548;-76.088;2023-06-19T07:36:13;101330.91;;;19.67;81.31
31331;BME280;34067;39.548;-76.088;2023-06-19T07:38:42;101331.36;;;20.18;82.86
31331;BME280;34067;39.548;-76.088;2023-06-19T07:41:10;101329.60;;;18.91;89.56
31331;BME280;34067;39.548;-76.088;2023-06-19T07:43:38;101326.82;;;20.22;86.31
31331;BME280;34067;39.548;-76.088;2023-06-19T07:46:06;101333.16;;;18.45;93.55
31331;BME280;34067;39.548;-76.088;2023-06-19T07:48:34;101329.94;;;18.24;92.89
31331;BME280;34067;39.548;-76.088;2023-06-19T07:51:01;101328.16;;;19.40;92.17
31331;BME280;34067;39.548;-76.088;2023-06-19T07:53:29;101334.24;;;17.95;99.54
31331;BME280;34067;39.548;-76.088;2023-06-19T07:55:57;101331.46;;;18.62;97.04
31331;BME280;34067;39.548;-76.088;2023-06-19T07:58:25;101333.47;;;17.60;100.00
31331;BME280;34067;39.548;-76.088;2023-06-19T08:00:53;101330.62;;;18.71;95.82
31331;BME280;34067;39.548;-76.088;2023-06-19T08:03:21;101336.39;;;18.61;98.79
31331;BME280;34067;39.548;-76.088;2023-06-19T08:05:49;101339.99;;;17.48;100.00
31331;BME280;34067;39.548;-76.088;2023-06-19T08:08:16;101339.16;;;18.15;100.00
31331;BME280;34067;39.548;-76.088;2023-06-19T08:10:44;101338.37;;;18.62;98.84
31331;BME280;34067;39.548;-76.088;2023-06-19T08:13:12;101336.08;;;18.97;97.06
31331;BME280;34067;39.548;-76.088;2023-06-19T08:15:40;101333.60;;;19.09;95.45
31331;BME280;34067;39.548;-76.088;2023-06-19T08:18:08;101332.30;;;18.90;93.59
31331;BME280;34067;39.548;-76.088;2023-06-19T08:20:35;101334.93;;;18.18;95.24
31331;BME280;34067;39.548;-76.088;2023-06-19T08:23:03;101331.88;;;18.87;93.25
31331;BME280;34067;39.548;-76.088;2023-06-19T08:25:31;101342.75;;;18.12;100.00
31331;BME280;34067;39.548;-76.088;2023-06-19T08:27:59;101347.22;;;17.46;100.00
31331;BME280;34067;39.548;-76.088;2023-06-19T08:30:26;101347.67;;;17.37;100.00
31331;BME280;34067;39.548;-76.088;2023-06-19T08:32:54;101342.15;;;17.45;100.00
31331;BME280;34067;39.548;-76.088;2023-06-19T08:35:22;101341.32;;;17.07;100.00
31331;BME280;34067;39.548;-76.088;2023-06-19T08:37:49;101336.59;;;17.84;100.00
31331;BME280;34067;39.548;-76.088;2023-06-19T08:40:17;101329.46;;;18.63;96.48
31331;BME280;34067;39.548;-76.088;2023-06-19T08:42:47;101337.91;;;17.52;100.00
31331;BME280;34067;39.548;-76.088;2023-06-19T08:45:14;101338.56;;;15.86;100.00
31331;BME280;34067;39.548;-76.088;2023-06-19T08:47:42;101337.38;;;16.45;100.00
31331;BME280;34067;39.548;-76.088;2023-06-19T08:50:10;101342.22;;;17.76;100.00
31331;BME280;34067;39.548;-76.088;2023-06-19T08:52:38;101344.26;;;17.93;100.00
31331;BME280;34067;39.548;-76.088;2023-06-19T08:55:07;101348.23;;;16.71;100.00
31331;BME280;34067;39.548;-76.088;2023-06-19T08:57:38;101346.61;;;16.40;100.00
31331;BME280;34067;39.548;-76.088;2023-06-19T09:00:07;101347.94;;;15.54;100.00
31331;BME280;34067;39.548;-76.088;2023-06-19T09:02:40;101346.00;;;16.32;100.00
31331;BME280;34067;39.548;-76.088;2023-06-19T09:05:12;101348.90;;;16.08;100.00
31331;BME280;34067;39.548;-76.088;2023-06-19T09:07:39;101352.49;;;16.36;100.00
31331;BME280;34067;39.548;-76.088;2023-06-19T09:10:17;101358.43;;;16.91;100.00
31331;BME280;34067;39.548;-76.088;2023-06-19T09:12:57;101356.26;;;17.17;100.00
31331;BME280;34067;39.548;-76.088;2023-06-19T09:15:28;101358.61;;;18.16;100.00
31331;BME280;34067;39.548;-76.088;2023-06-19T09:18:05;101358.84;;;17.06;100.00
31331;BME280;34067;39.548;-76.088;2023-06-19T09:20:33;101357.14;;;16.73;100.00
31331;BME280;34067;39.548;-76.088;2023-06-19T09:23:02;101360.45;;;16.64;100.00
31331;BME280;34067;39.548;-76.088;2023-06-19T09:25:29;101369.40;;;15.43;100.00
31331;BME280;34067;39.548;-76.088;2023-06-19T09:27:57;101372.58;;;17.16;100.00
31331;BME280;34067;39.548;-76.088;2023-06-19T09:30:26;101374.93;;;16.68;100.00
31331;BME280;34067;39.548;-76.088;2023-06-19T09:32:54;101380.18;;;17.29;100.00
31331;BME280;34067;39.548;-76.088;2023-06-19T09:35:22;101383.04;;;17.21;100.00
31331;BME280;34067;39.548;-76.088;2023-06-19T09:37:50;101386.34;;;17.90;100.00
31331;BME280;34067;39.548;-76.088;2023-06-19T09:40:19;101388.41;;;16.85;100.00
31331;BME280;34067;39.548;-76.088;2023-06-19T09:42:48;101391.94;;;16.53;100.00
31331;BME280;34067;39.548;-76.088;2023-06-19T09:45:21;101393.41;;;17.14;100.00
31331;BME280;34067;39.548;-76.088;2023-06-19T09:47:52;101396.18;;;17.40;100.00
31331;BME280;34067;39.548;-76.088;2023-06-19T09:50:23;101401.20;;;17.60;100.00
31331;BME280;34067;39.548;-76.088;2023-06-19T09:52:51;101400.91;;;16.95;100.00
31331;BME280;34067;39.548;-76.088;2023-06-19T09:55:20;101397.89;;;16.82;100.00
31331;BME280;34067;39.548;-76.088;2023-06-19T09:57:49;101401.68;;;17.06;100.00
31331;BME280;34067;39.548;-76.088;2023-06-19T10:00:17;101398.69;;;17.13;100.00
31331;BME280;34067;39.548;-76.088;2023-06-19T10:02:48;101407.93;;;16.20;100.00
31331;BME280;34067;39.548;-76.088;2023-06-19T10:05:15;101405.95;;;16.59;100.00
31331;BME280;34067;39.548;-76.088;2023-06-19T10:07:46;101409.73;;;16.83;100.00
31331;BME280;34067;39.548;-76.088;2023-06-19T10:10:24;101411.78;;;17.07;100.00
31331;BME280;34067;39.548;-76.088;2023-06-19T10:12:54;101415.75;;;16.98;100.00
31331;BME280;34067;39.548;-76.088;2023-06-19T10:15:23;101421.94;;;16.20;100.00
31331;BME280;34067;39.548;-76.088;2023-06-19T10:17:52;101422.69;;;16.85;100.00
31331;BME280;34067;39.548;-76.088;2023-06-19T10:20:24;101420.77;;;16.88;100.00
31331;BME280;34067;39.548;-76.088;2023-06-19T10:22:57;101433.39;;;16.63;100.00
31331;BME280;34067;39.548;-76.088;2023-06-19T10:25:29;101437.21;;;16.77;100.00
31331;BME280;34067;39.548;-76.088;2023-06-19T10:27:58;101443.87;;;17.08;100.00
31331;BME280;34067;39.548;-76.088;2023-06-19T10:30:26;101447.33;;;16.12;100.00
31331;BME280;34067;39.548;-76.088;2023-06-19T10:32:54;101453.80;;;17.18;100.00
31331;BME280;34067;39.548;-76.088;2023-06-19T10:35:22;101453.28;;;16.47;100.00
31331;BME280;34067;39.548;-76.088;2023-06-19T10:37:50;101459.11;;;18.44;100.00
31331;BME280;34067;39.548;-76.088;2023-06-19T10:40:19;101460.39;;;17.63;100.00
31331;BME280;34067;39.548;-76.088;2023-06-19T10:42:46;101468.04;;;17.13;100.00
31331;BME280;34067;39.548;-76.088;2023-06-19T10:45:15;101466.84;;;17.09;100.00
31331;BME280;34067;39.548;-76.088;2023-06-19T10:47:43;101470.48;;;18.65;100.00
31331;BME280;34067;39.548;-76.088;2023-06-19T10:50:12;101471.30;;;17.08;100.00
31331;BME280;34067;39.548;-76.088;2023-06-19T10:52:41;101471.89;;;17.67;100.00
31331;BME280;34067;39.548;-76.088;2023-06-19T10:55:11;101478.26;;;15.09;100.00
31331;BME280;34067;39.548;-76.088;2023-06-19T10:57:40;101479.92;;;16.40;100.00
31331;BME280;34067;39.548;-76.088;2023-06-19T11:00:21;101483.58;;;16.88;100.00
31331;BME280;34067;39.548;-76.088;2023-06-19T11:02:50;101489.54;;;16.88;100.00
31331;BME280;34067;39.548;-76.088;2023-06-19T11:05:20;101488.21;;;16.73;100.00
31331;BME280;34067;39.548;-76.088;2023-06-19T11:07:52;101494.45;;;17.33;100.00
31331;BME280;34067;39.548;-76.088;2023-06-19T11:10:21;101496.68;;;16.08;100.00
31331;BME280;34067;39.548;-76.088;2023-06-19T11:12:52;101496.00;;;16.39;100.00
31331;BME280;34067;39.548;-76.088;2023-06-19T11:15:28;101494.25;;;17.42;100.00
31331;BME280;34067;39.548;-76.088;2023-06-19T11:17:57;101498.52;;;17.57;100.00
31331;BME280;34067;39.548;-76.088;2023-06-19T11:20:25;101502.29;;;17.77;100.00
31331;BME280;34067;39.548;-76.088;2023-06-19T11:22:56;101505.69;;;16.71;100.00
31331;BME280;34067;39.548;-76.088;2023-06-19T11:25:35;101506.29;;;17.07;100.00
31331;BME280;34067;39.548;-76.088;2023-06-19T11:28:04;101507.13;;;18.08;100.00
31331;BME280;34067;39.548;-76.088;2023-06-19T11:30:33;101512.65;;;17.61;100.00
31331;BME280;34067;39.548;-76.088;2023-06-19T11:33:01;101520.24;;;18.60;100.00
31331;BME280;34067;39.548;-76.088;2023-06-19T11:35:34;101523.45;;;18.72;97.84
31331;BME280;34067;39.548;-76.088;2023-06-19T11:38:02;101528.51;;;18.48;93.92
31331;BME280;34067;39.548;-76.088;2023-06-19T11:40:40;101529.17;;;18.34;94.78
31331;BME280;34067;39.548;-76.088;2023-06-19T11:43:08;101529.99;;;18.94;93.65
31331;BME280;34067;39.548;-76.088;2023-06-19T11:45:47;101526.24;;;20.11;88.22
31331;BME280;34067;39.548;-76.088;2023-06-19T11:48:22;101529.89;;;20.53;83.91
31331;BME280;34067;39.548;-76.088;2023-06-19T11:50:50;101531.99;;;20.31;84.63
31331;BME280;34067;39.548;-76.088;2023-06-19T11:53:18;101531.88;;;20.74;83.88
31331;BME280;34067;39.548;-76.088;2023-06-19T11:55:46;101533.51;;;20.25;86.43
31331;BME280;34067;39.548;-76.088;2023-06-19T11:58:14;101529.07;;;20.90;85.47
31331;BME280;34067;39.548;-76.088;2023-06-19T12:00:42;101528.57;;;18.78;84.37
31331;BME280;34067;39.548;-76.088;2023-06-19T12:03:10;101522.90;;;19.89;85.43
31331;BME280;34067;39.548;-76.088;2023-06-19T12:05:39;101525.38;;;20.73;80.82
31331;BME280;34067;39.548;-76.088;2023-06-19T12:08:07;101526.77;;;20.15;84.09
31331;BME280;34067;39.548;-76.088;2023-06-19T12:10:34;101528.46;;;19.56;86.85
31331;BME280;34067;39.548;-76.088;2023-06-19T12:13:03;101521.21;;;20.80;85.10
31331;BME280;34067;39.548;-76.088;2023-06-19T12:15:31;101519.98;;;20.56;83.55
31331;BME280;34067;39.548;-76.088;2023-06-19T12:17:59;101517.64;;;20.62;83.74
31331;BME280;34067;39.548;-76.088;2023-06-19T12:20:27;101518.95;;;19.28;85.77
31331;BME280;34067;39.548;-76.088;2023-06-19T12:22:55;101512.60;;;20.72;83.21
31331;BME280;34067;39.548;-76.088;2023-06-19T12:25:23;101511.17;;;21.36;77.39
31331;BME280;34067;39.548;-76.088;2023-06-19T12:27:50;101514.39;;;21.98;74.13
31331;BME280;34067;39.548;-76.088;2023-06-19T12:30:18;101516.53;;;23.45;66.01
31331;BME280;34067;39.548;-76.088;2023-06-19T12:32:46;101518.73;;;23.70;62.78
31331;BME280;34067;39.548;-76.088;2023-06-19T12:35:14;101522.32;;;22.96;61.44